Decoded Metar for KAUO (AUBURN OPELIKA A in AL, USA) (IATA:AUO) | Meteo·Mobile Aviation Weather
aviador You're here:

KAUO Decoded Metar

AUBURN OPELIKA A in AL, USA
Report Time2018-11-17 20:56:00
UTC Time2018-11-17 21:06:20
Flight Rules vfr VFR
Wind290° at 04 kt
W.Decomp.*RWY 29: 4.0 kt HW 0.3 kt RCW
RWY 36: 1.6 kt HW 3.7 kt LCW
W.Rank290° ranks 29
Current wind is below 290° avg. (6.3)
Visibility9999 m
Phenomena:N/A
Clouds:N/A
Expected CloudBase > 4,400 ft AGL from Temp-Dew spread
CeilingNone
Temp17°C (ISA +4)
Dew Point06°C (49% RH)
AAT14.7°C
QNH1023 hPa
Density Alt988 ft
Elevation776 ft
Report Wrong Elevation
Raw Report
METAR KAUO 172056Z AUTO 29004KT 10SM CLR 17/06 A3020 RMK AO2 SLP254
T01720061 56011=

Extra information for KAUO:More info

Metar Taf Metar & Taf Last 4 Metars F.Rules Stats Wind Profile Meteogram Temp Stats Airport Information Weather charts Add Link Nearby VenuesMetar ALERT Operation Metar Decoded Social comments

AIRNAV info for KAUO